San Benito, TX

1:33 PM CDT on September 01, 2015 (GMT -0500)
MesoWest | | Change Station
CLOSE
Current Station
Personal Weather Station
Location: Rio Hondo, TX
Elevation: 30 ft
Nearby Weather Stations

Elev 30 ft 26.19 °N, 97.54 °W | Updated 2 hours ago

Mostly Cloudy
Mostly Cloudy
90.0 °F
Feels Like 90.0 °F
N
0.0
Wind Variable Wind from North
Gusts 0.0 mph

Today
High -- | Low -- °F
--% Chance of Precip.
Yesterday
High -- | Low -- °F
Precip. -- in
7:10 AM 7:49 PM
Waning Gibbous, 87% visible
Pressure 29.97 in
Visibility 10.0 miles
Clouds Few 2300 ft
Scattered Clouds 2700 ft
Mostly Cloudy 5000 ft
Dew Point Not available.
Humidity Not available.
Rainfall in
Snow Depth Not available.
UV 6 out of 12
Pollen 7.90 out of 12
Air Quality Not available.
Flu Activity Not available.
METAR KHRL 011752Z AUTO 09010G18KT 10SM FEW023 SCT027 BKN050 31/24 A2997 RMK AO2 SLP149 T03060239 10317 20233 58002
Pressure 29.97 in
Visibility 10.0 miles
Clouds Few 2300 ft
Scattered Clouds 2700 ft
Mostly Cloudy 5000 ft
Dew Point Not available.
Humidity Not available.
Rainfall in
Snow Depth Not available.
UV 6 out of 12
Pollen 7.90 out of 12
Air Quality Not available.
Flu Activity Not available.
METAR KHRL 011752Z AUTO 09010G18KT 10SM FEW023 SCT027 BKN050 31/24 A2997 RMK AO2 SLP149 T03060239 10317 20233 58002
Nowcast | as of 1:26 PM CDT on September 1, 2015

Through 230 PM...showers are continuing to develop mainly over Hidalgo and Brooks counties along and west of Highway 281. Isolated showers are reaching into Jim Hogg...Starr...Cameron...Willacy...and Kenedy counties. These showers are moving north at 7 knots. Rainfall amounts will range from a trace up to a quarter of an inch in isolated spots.

×

10-Day Weather Forecast

×

Almanac

Astronomy

Sep. 01, 2015 Rise Set
Actual Time
Civil Twilight
Nautical Twilight
Astronomical Twilight
Moon
Length of Visible Light
Length of Day
Tomorrow will be .
, % of the Moon is Illuminated

Today's Extremes

State Highs State Lows

Community

WunderPhotos

Upload Photos

1,851,593 photos uploaded!

WunderBlogs® & News

Nearby

Air Quality

  Air Quality AQ Index Pollutant
Not available.

Snow Depth

Station Depth Elevation

Earthquake Activity

City Distance Mag. Time & Date
Minimum magnitude displayed is 2.5.

Coastal Water Temperatures

Place Temperature

Stations

Nearby Weather Stations

Station Location Temp. Windchill Dew Point Humidity Wind Precip. Elev Updated Type